createdAt,value
2019-02-22T00:01:37.658Z,27.55
2019-02-22T00:04:06.141Z,24.60
2019-02-22T00:06:34.701Z,27.77
2019-02-22T00:09:04.881Z,27.37
2019-02-22T00:11:33.373Z,26.73
2019-02-22T00:14:01.851Z,27.73
2019-02-22T00:16:32.360Z,25.40
2019-02-22T00:19:00.605Z,26.95
2019-02-22T00:21:29.155Z,26.75
2019-02-22T00:23:57.740Z,28.95
2019-02-22T00:26:26.449Z,27.17
2019-02-22T00:28:54.982Z,28.65
2019-02-22T00:31:23.411Z,29.00
2019-02-22T00:33:51.922Z,29.25
2019-02-22T00:36:20.400Z,29.12
2019-02-22T00:38:48.981Z,28.30
2019-02-22T00:41:17.541Z,28.85
2019-02-22T00:43:46.025Z,29.45
2019-02-22T00:46:14.563Z,28.90
2019-02-22T00:48:43.098Z,27.00
2019-02-22T00:51:11.648Z,29.27
2019-02-22T00:53:40.121Z,29.00
2019-02-22T00:56:08.593Z,27.87
2019-02-22T00:58:37.095Z,28.75
2019-02-22T01:01:05.569Z,28.60
2019-02-22T01:03:34.069Z,28.87
2019-02-22T01:06:02.545Z,27.60
2019-02-22T01:08:31.046Z,27.20
2019-02-22T01:10:59.584Z,27.77
2019-02-22T01:13:28.096Z,28.17
2019-02-22T01:15:56.577Z,29.18
2019-02-22T01:18:25.040Z,27.85
2019-02-22T01:20:54.643Z,27.42
2019-02-22T01:23:23.400Z,26.37
2019-02-22T01:25:51.888Z,28.47
2019-02-22T01:28:20.347Z,26.85
2019-02-22T01:30:48.833Z,27.40
2019-02-22T01:33:17.290Z,28.42
2019-02-22T01:35:45.782Z,27.20
2019-02-22T01:38:14.265Z,28.30
2019-02-22T01:40:44.136Z,27.32
2019-02-22T01:43:12.796Z,25.17
2019-02-22T01:45:41.292Z,28.25
2019-02-22T01:48:09.778Z,28.75
2019-02-22T01:50:38.269Z,28.35
2019-02-22T01:53:06.844Z,26.80
2019-02-22T01:55:35.305Z,28.65
2019-02-22T01:58:03.774Z,28.87
2019-02-22T02:00:32.410Z,28.75
2019-02-22T02:03:03.797Z,26.97
2019-02-22T02:05:32.308Z,27.22
2019-02-22T02:08:00.784Z,27.52
2019-02-22T02:10:29.280Z,25.00
2019-02-22T02:12:57.747Z,27.17
2019-02-22T02:15:26.232Z,28.73
2019-02-22T02:17:54.688Z,26.73
2019-02-22T02:20:23.379Z,28.35
2019-02-22T02:22:51.824Z,28.32
2019-02-22T02:25:20.529Z,27.42
2019-02-22T02:27:48.999Z,24.90
2019-02-22T02:30:17.588Z,25.92
2019-02-22T02:32:46.081Z,29.12
2019-02-22T02:35:14.620Z,28.05
2019-02-22T02:37:43.208Z,28.47
2019-02-22T02:40:11.843Z,26.35
2019-02-22T02:42:40.339Z,24.55
2019-02-22T02:45:09.097Z,28.80
2019-02-22T02:47:37.589Z,27.93
2019-02-22T02:50:07.538Z,29.60
2019-02-22T02:52:36.032Z,27.37
2019-02-22T02:55:04.666Z,27.65
2019-02-22T02:57:33.184Z,27.73
2019-02-22T03:00:01.761Z,26.80
2019-02-22T03:02:31.305Z,29.07
2019-02-22T03:04:59.769Z,27.15
2019-02-22T03:07:44.989Z,26.65
2019-02-22T03:10:13.685Z,26.57
2019-02-22T03:12:42.236Z,28.55
2019-02-22T03:15:13.299Z,28.05
2019-02-22T03:17:41.864Z,27.77
2019-02-22T03:20:10.504Z,28.17
2019-02-22T03:22:38.980Z,27.70
2019-02-22T03:25:09.352Z,26.05
2019-02-22T03:27:37.921Z,27.75
2019-02-22T03:30:11.154Z,28.12
2019-02-22T03:32:39.670Z,25.88
2019-02-22T03:35:08.384Z,27.75
2019-02-22T03:37:36.927Z,26.95
2019-02-22T03:40:07.292Z,25.57
2019-02-22T03:42:35.747Z,26.40
2019-02-22T03:45:06.093Z,23.85
2019-02-22T03:47:35.460Z,24.20
2019-02-22T03:50:06.315Z,22.10
2019-02-22T03:52:39.209Z,12.53
2019-02-22T03:55:09.177Z,10.95
2019-02-22T03:57:37.720Z,9.10
2019-02-22T04:00:09.223Z,8.35
2019-02-22T04:02:37.695Z,8.45
2019-02-22T04:05:09.577Z,8.55
2019-02-22T04:07:38.044Z,8.20
2019-02-22T04:10:08.060Z,8.73
2019-02-22T04:12:36.593Z,8.65
2019-02-22T04:15:08.349Z,9.10
2019-02-22T04:17:37.053Z,8.75
2019-02-22T04:20:07.777Z,9.15
2019-02-22T04:22:36.297Z,7.75
2019-02-22T04:25:06.236Z,6.85
2019-02-22T04:27:34.691Z,7.37
2019-02-22T04:30:03.329Z,7.00
2019-02-22T04:32:31.825Z,8.55
2019-02-22T04:35:00.336Z,6.60
2019-02-22T04:37:28.777Z,7.22
2019-02-22T04:39:57.256Z,6.50
2019-02-22T04:42:25.739Z,6.83
2019-02-22T04:44:54.917Z,7.17
2019-02-22T04:47:23.397Z,7.00
2019-02-22T04:49:51.857Z,8.50
2019-02-22T04:52:20.347Z,7.08
2019-02-22T04:54:48.800Z,8.50
2019-02-22T04:57:17.277Z,9.50
2019-02-22T04:59:45.734Z,9.10
2019-02-22T05:02:14.276Z,8.45
2019-02-22T05:04:42.731Z,8.33
2019-02-22T05:07:11.230Z,7.53
2019-02-22T05:09:39.662Z,8.43
2019-02-22T05:12:11.171Z,7.40
2019-02-22T05:14:38.321Z,8.23
2019-02-22T05:17:06.805Z,7.30
2019-02-22T05:19:35.281Z,9.73
2019-02-22T05:22:03.777Z,9.73
2019-02-22T05:24:32.312Z,10.75
2019-02-22T05:27:00.880Z,11.97
2019-02-22T05:29:29.491Z,11.63
2019-02-22T05:31:57.986Z,12.37
2019-02-22T05:34:29.441Z,12.45
2019-02-22T05:36:57.908Z,13.72
2019-02-22T05:39:26.472Z,13.83
2019-02-22T05:41:54.936Z,14.70
2019-02-22T05:44:23.490Z,13.80
2019-02-22T05:46:59.946Z,13.32
2019-02-22T05:49:22.627Z,14.55
2019-02-22T05:51:51.093Z,13.85
2019-02-22T05:54:19.599Z,14.13
2019-02-22T05:56:48.063Z,15.18
2019-02-22T05:59:16.619Z,15.68
2019-02-22T06:01:45.164Z,15.85
2019-02-22T06:04:13.647Z,16.20
2019-02-22T06:06:42.114Z,16.97
2019-02-22T06:09:10.699Z,18.92
2019-02-22T06:11:39.148Z,17.85
2019-02-22T06:14:07.627Z,17.40
2019-02-22T06:16:37.757Z,19.30
2019-02-22T06:19:06.227Z,18.17
2019-02-22T06:21:34.732Z,19.00
2019-02-22T06:24:03.340Z,18.23
2019-02-22T06:26:31.940Z,20.15
2019-02-22T06:29:03.236Z,21.02
2019-02-22T06:31:31.742Z,20.75
2019-02-22T06:34:02.169Z,21.42
2019-02-22T06:36:30.655Z,22.52
2019-02-22T06:38:59.201Z,27.58
2019-02-22T06:41:30.678Z,23.60
2019-02-22T06:43:59.148Z,22.42
2019-02-22T06:46:27.630Z,20.40
2019-02-22T06:48:56.099Z,20.75
2019-02-22T06:51:24.602Z,22.10
2019-02-22T06:53:53.065Z,21.85
2019-02-22T06:56:24.186Z,22.17
2019-02-22T06:58:51.743Z,18.60
2019-02-22T07:01:20.220Z,19.42
2019-02-22T07:03:48.705Z,19.50
2019-02-22T07:06:17.267Z,19.20
2019-02-22T07:08:45.775Z,18.65
2019-02-22T07:11:15.881Z,17.10
2019-02-22T07:13:44.366Z,15.08
2019-02-22T07:16:12.901Z,12.20
2019-02-22T07:18:41.541Z,12.23
2019-02-22T07:21:12.758Z,12.10
2019-02-22T07:23:41.311Z,10.45
2019-02-22T07:26:09.882Z,10.18
2019-02-22T07:28:38.383Z,8.18
2019-02-22T07:31:06.866Z,8.80
2019-02-22T07:33:35.346Z,7.50
2019-02-22T07:36:03.831Z,6.83
2019-02-22T07:38:32.307Z,6.00
2019-02-22T07:41:00.861Z,5.55
2019-02-22T07:43:29.341Z,4.97
2019-02-22T07:45:57.816Z,5.00
2019-02-22T07:48:26.280Z,5.03
2019-02-22T07:50:58.075Z,4.60
2019-02-22T07:53:26.509Z,4.58
2019-02-22T07:55:54.988Z,4.70
2019-02-22T07:58:23.450Z,4.50
2019-02-22T08:00:51.997Z,4.80
2019-02-22T08:03:20.537Z,4.70
2019-02-22T08:05:49.140Z,4.97
2019-02-22T08:08:17.616Z,5.15
2019-02-22T08:10:46.079Z,4.72
2019-02-22T08:13:19.848Z,3.95
2019-02-22T08:15:44.752Z,4.12
2019-02-22T08:18:13.217Z,3.45
2019-02-22T08:20:41.713Z,3.80
2019-02-22T08:23:10.180Z,3.42
2019-02-22T08:25:38.745Z,2.98
2019-02-22T08:28:07.211Z,2.87
2019-02-22T08:30:35.697Z,3.22
2019-02-22T08:33:04.233Z,3.10
2019-02-22T08:35:32.930Z,3.22
2019-02-22T08:38:02.945Z,3.10
2019-02-22T08:40:31.424Z,3.00
2019-02-22T08:42:59.876Z,3.12
2019-02-22T08:45:28.410Z,2.98
2019-02-22T08:47:56.940Z,2.85
2019-02-22T08:50:25.477Z,3.02
2019-02-22T08:52:54.002Z,3.00
2019-02-22T08:55:22.635Z,2.58
2019-02-22T08:57:51.130Z,2.70
2019-02-22T09:00:19.852Z,2.25
2019-02-22T09:02:48.308Z,2.67
2019-02-22T09:05:17.000Z,2.95
2019-02-22T09:07:45.451Z,2.95
2019-02-22T09:10:14.297Z,2.50
2019-02-22T09:12:42.758Z,3.08
2019-02-22T09:15:11.644Z,2.50
2019-02-22T09:17:40.114Z,2.75
2019-02-22T09:20:11.380Z,2.47
2019-02-22T09:22:39.911Z,2.50
2019-02-22T09:25:08.750Z,2.50
2019-02-22T09:27:37.293Z,2.58
2019-02-22T09:30:09.227Z,2.42
2019-02-22T09:32:37.713Z,2.62
2019-02-22T09:35:08.854Z,2.60
2019-02-22T09:37:37.479Z,2.80
2019-02-22T09:40:09.004Z,3.02
2019-02-22T09:42:39.044Z,2.42
2019-02-22T09:45:10.555Z,2.27
2019-02-22T09:47:39.094Z,2.20
2019-02-22T09:50:10.525Z,2.37
2019-02-22T09:52:39.000Z,2.33
2019-02-22T09:55:09.991Z,2.30
2019-02-22T09:57:38.837Z,2.20
2019-02-22T10:00:10.694Z,2.30
2019-02-22T10:02:39.211Z,2.30
2019-02-22T10:05:09.815Z,2.20
2019-02-22T10:07:38.292Z,2.17
2019-02-22T10:10:09.530Z,2.83
2019-02-22T10:12:37.981Z,1.92
2019-02-22T10:15:08.388Z,2.60
2019-02-22T10:17:36.857Z,2.30
2019-02-22T10:20:08.225Z,1.98
2019-02-22T10:22:36.715Z,2.45
2019-02-22T10:25:06.673Z,2.10
2019-02-22T10:27:38.308Z,2.52
2019-02-22T10:30:10.118Z,2.47
2019-02-22T10:32:38.596Z,2.45
2019-02-22T10:35:08.126Z,2.70
2019-02-22T10:37:36.581Z,2.87
2019-02-22T10:40:08.088Z,2.30
2019-02-22T10:42:36.543Z,2.20
2019-02-22T10:45:07.928Z,2.45
2019-02-22T10:47:36.368Z,2.30
2019-02-22T10:50:05.827Z,2.35
2019-02-22T10:52:34.272Z,2.50
2019-02-22T10:55:02.957Z,2.25
2019-02-22T10:57:31.393Z,2.80
2019-02-22T10:59:59.883Z,2.62
2019-02-22T11:02:28.355Z,2.37
2019-02-22T11:04:56.847Z,2.80
2019-02-22T11:07:25.347Z,2.20
2019-02-22T11:09:53.816Z,2.30
2019-02-22T11:12:24.361Z,2.40
2019-02-22T11:14:52.521Z,2.20
2019-02-22T11:17:21.069Z,2.65
2019-02-22T11:19:49.526Z,2.58
2019-02-22T11:22:18.031Z,2.30
2019-02-22T11:24:49.280Z,2.40
2019-02-22T11:27:17.741Z,2.50
2019-02-22T11:29:48.800Z,2.65
2019-02-22T11:32:17.960Z,2.40
2019-02-22T11:34:48.472Z,2.22
2019-02-22T11:37:16.938Z,2.30
2019-02-22T11:39:48.527Z,2.60
2019-02-22T11:42:17.009Z,2.60
2019-02-22T11:44:45.477Z,2.40
2019-02-22T11:47:13.955Z,2.70
2019-02-22T11:49:42.505Z,2.30
2019-02-22T11:52:10.971Z,2.50
2019-02-22T11:54:39.428Z,2.58
2019-02-22T11:57:08.143Z,2.08
2019-02-22T11:59:36.607Z,2.30
2019-02-22T12:02:05.298Z,2.37
2019-02-22T12:04:33.822Z,2.62
2019-02-22T12:07:02.465Z,2.00
2019-02-22T12:09:38.418Z,2.40
2019-02-22T12:12:07.014Z,2.40
2019-02-22T12:14:36.006Z,2.30
2019-02-22T12:17:04.560Z,2.30
2019-02-22T12:19:33.015Z,2.42
2019-02-22T12:22:01.484Z,2.17
2019-02-22T12:24:30.025Z,2.52
2019-02-22T12:26:58.486Z,2.33
2019-02-22T12:29:26.969Z,2.15
2019-02-22T12:31:55.455Z,2.62
2019-02-22T12:34:25.420Z,2.25
2019-02-22T12:36:53.906Z,2.33
2019-02-22T12:39:24.558Z,2.62
2019-02-22T12:41:53.745Z,2.10
2019-02-22T12:44:22.263Z,2.55
2019-02-22T12:46:50.729Z,2.40
2019-02-22T12:49:19.170Z,2.40
2019-02-22T12:51:47.750Z,2.67
2019-02-22T12:54:16.215Z,2.33
2019-02-22T12:56:57.080Z,2.02
2019-02-22T12:59:14.971Z,2.50
2019-02-22T13:01:43.552Z,2.33
2019-02-22T13:04:12.100Z,2.45
2019-02-22T13:06:40.595Z,2.17
2019-02-22T13:09:09.491Z,2.52
2019-02-22T13:11:37.957Z,2.05
2019-02-22T13:14:06.498Z,2.20
2019-02-22T13:16:35.020Z,2.50
2019-02-22T13:19:03.480Z,2.20
2019-02-22T13:21:31.941Z,2.17
2019-02-22T13:24:00.390Z,2.22
2019-02-22T13:26:28.864Z,2.20
2019-02-22T13:28:57.354Z,2.47
2019-02-22T13:31:30.232Z,2.47
2019-02-22T13:33:56.079Z,2.05
2019-02-22T13:36:24.621Z,2.30
2019-02-22T13:38:53.130Z,2.30
2019-02-22T13:41:21.592Z,2.12
2019-02-22T13:43:50.121Z,2.08
2019-02-22T13:46:18.599Z,2.15
2019-02-22T13:48:47.136Z,2.20
2019-02-22T13:51:15.593Z,2.45
2019-02-22T13:53:45.681Z,2.50
2019-02-22T13:56:14.165Z,2.42
2019-02-22T13:58:42.607Z,2.50
2019-02-22T14:01:11.095Z,2.77
2019-02-22T14:03:39.551Z,2.40
2019-02-22T14:06:08.051Z,2.77
2019-02-22T14:08:36.532Z,2.77
2019-02-22T14:11:05.012Z,2.83
2019-02-22T14:13:33.539Z,2.70
2019-02-22T14:16:02.004Z,2.90
2019-02-22T14:18:30.480Z,2.50
2019-02-22T14:20:58.942Z,2.22
2019-02-22T14:23:27.421Z,2.98
2019-02-22T14:25:55.925Z,2.70
2019-02-22T14:28:24.405Z,2.65
2019-02-22T14:30:52.855Z,2.70
2019-02-22T14:33:21.329Z,2.50
2019-02-22T14:35:49.780Z,2.42
2019-02-22T14:38:18.272Z,2.83
2019-02-22T14:40:46.728Z,2.77
2019-02-22T14:43:16.897Z,2.60
2019-02-22T14:45:49.266Z,2.75
2019-02-22T14:48:15.648Z,2.45
2019-02-22T14:50:44.208Z,2.20
2019-02-22T14:53:19.648Z,2.80
2019-02-22T14:55:43.052Z,6.20
2019-02-22T14:58:11.536Z,3.20
2019-02-22T15:00:40.004Z,2.85
2019-02-22T15:03:08.474Z,2.70
2019-02-22T15:05:36.939Z,3.02
2019-02-22T15:08:05.494Z,2.70
2019-02-22T15:10:34.012Z,2.90
2019-02-22T15:13:02.502Z,2.75
2019-02-22T15:18:26.334Z,2.90
2019-02-22T15:20:55.164Z,3.10
2019-02-22T15:23:23.658Z,2.77
2019-02-22T15:25:52.161Z,2.80
2019-02-22T15:28:20.632Z,3.15
2019-02-22T15:30:49.088Z,3.08
2019-02-22T15:33:18.401Z,2.55
2019-02-22T15:35:47.061Z,3.10
2019-02-22T15:38:15.564Z,2.90
2019-02-22T15:40:44.111Z,2.95
2019-02-22T15:43:12.602Z,2.62
2019-02-22T15:45:41.099Z,2.85
2019-02-22T15:48:09.609Z,2.90
2019-02-22T15:50:39.853Z,3.10
2019-02-22T15:53:08.330Z,3.02
2019-02-22T15:55:36.796Z,2.77
2019-02-22T15:58:05.283Z,2.95
2019-02-22T16:00:34.915Z,2.90
2019-02-22T16:03:05.072Z,3.17
2019-02-22T16:05:35.258Z,3.22
2019-02-22T16:08:03.806Z,3.05
2019-02-22T16:10:32.358Z,2.80
2019-02-22T16:13:00.840Z,3.17
2019-02-22T16:15:29.313Z,2.92
2019-02-22T16:18:02.513Z,3.30
2019-02-22T16:20:30.993Z,2.92
2019-02-22T16:23:04.486Z,3.08
2019-02-22T16:25:32.987Z,2.77
2019-02-22T16:28:01.557Z,2.52
2019-02-22T16:30:30.898Z,3.17
2019-02-22T16:32:59.362Z,2.85
2019-02-22T16:35:27.934Z,3.30
2019-02-22T16:37:56.426Z,2.90
2019-02-22T16:40:25.001Z,3.33
2019-02-22T16:42:54.999Z,3.22
2019-02-22T16:45:23.655Z,3.12
2019-02-22T16:47:52.141Z,2.62
2019-02-22T16:50:20.827Z,3.10
2019-02-22T16:52:49.297Z,2.50
2019-02-22T16:55:18.000Z,3.62
2019-02-22T16:57:47.977Z,3.00
2019-02-22T17:00:17.417Z,3.17
2019-02-22T17:02:45.875Z,2.92
2019-02-22T17:05:16.997Z,3.22
2019-02-22T17:07:45.540Z,2.80
2019-02-22T17:10:16.150Z,2.90
2019-02-22T17:12:46.205Z,2.77
2019-02-22T17:15:15.308Z,2.98
2019-02-22T17:17:43.837Z,2.58
2019-02-22T17:20:14.210Z,2.65
2019-02-22T17:22:42.698Z,2.70
2019-02-22T17:25:14.028Z,4.65
2019-02-22T17:27:42.500Z,3.87
2019-02-22T17:30:20.001Z,3.37
2019-02-22T17:32:48.529Z,3.40
2019-02-22T17:35:17.246Z,3.30
2019-02-22T17:37:50.695Z,3.70
2019-02-22T17:40:30.080Z,4.12
2019-02-22T17:42:58.551Z,3.00
2019-02-22T17:45:27.015Z,3.70
2019-02-22T17:48:22.821Z,3.17
2019-02-22T17:50:51.302Z,3.27
2019-02-22T17:53:21.589Z,3.33
2019-02-22T17:55:50.686Z,3.15
2019-02-22T17:58:24.466Z,3.02
2019-02-22T18:00:49.449Z,3.27
2019-02-22T18:03:24.413Z,3.85
2019-02-22T18:05:52.912Z,3.00
2019-02-22T18:08:21.382Z,2.62
2019-02-22T18:10:49.938Z,2.98
2019-02-22T18:13:18.401Z,3.00
2019-02-22T18:15:58.022Z,3.17
2019-02-22T18:18:25.735Z,3.08
2019-02-22T18:20:54.287Z,2.80
2019-02-22T18:23:22.800Z,3.77
2019-02-22T18:25:51.349Z,2.98
2019-02-22T18:28:22.519Z,3.20
2019-02-22T18:30:51.033Z,3.30
2019-02-22T18:33:21.082Z,3.10
2019-02-22T18:35:51.035Z,3.22
2019-02-22T18:38:19.554Z,2.62
2019-02-22T18:40:48.648Z,3.05
2019-02-22T18:43:18.463Z,2.77
2019-02-22T18:45:47.152Z,3.60
2019-02-22T18:51:47.702Z,3.15
2019-02-22T18:54:16.199Z,3.47
2019-02-22T18:56:44.665Z,3.17
2019-02-22T18:59:14.926Z,3.52
2019-02-22T19:01:45.885Z,2.70
2019-02-22T19:04:14.480Z,3.05
2019-02-22T19:06:42.953Z,3.40
2019-02-22T19:09:11.494Z,2.62
2019-02-22T19:11:39.957Z,3.10
2019-02-22T19:14:08.439Z,2.87
2019-02-22T19:16:36.921Z,2.85
2019-02-22T19:19:05.400Z,3.00
2019-02-22T19:21:33.885Z,2.83
2019-02-22T19:24:02.581Z,2.70
2019-02-22T19:26:31.127Z,3.27
2019-02-22T19:28:59.582Z,3.08
2019-02-22T19:31:28.073Z,3.08
2019-02-22T19:33:56.602Z,3.15
2019-02-22T19:36:25.101Z,3.77
2019-02-22T19:38:53.588Z,3.27
2019-02-22T19:41:22.054Z,3.37
2019-02-22T19:43:50.559Z,3.02
2019-02-22T19:46:19.054Z,3.62
2019-02-22T19:48:47.507Z,4.20
2019-02-22T19:51:18.834Z,4.00
2019-02-22T19:53:47.326Z,4.55
2019-02-22T19:56:15.811Z,4.37
2019-02-22T19:58:45.819Z,4.35
2019-02-22T20:01:14.376Z,4.40
2019-02-22T20:03:43.478Z,4.33
2019-02-22T20:06:12.184Z,4.42
2019-02-22T20:08:40.906Z,4.80
2019-02-22T20:11:09.719Z,3.58
2019-02-22T20:13:38.358Z,3.75
2019-02-22T20:16:06.944Z,4.00
2019-02-22T20:18:35.593Z,4.05
2019-02-22T20:21:07.455Z,4.17
2019-02-22T20:23:36.191Z,4.33
2019-02-22T20:26:04.894Z,3.92
2019-02-22T20:28:35.201Z,4.17
2019-02-22T20:31:04.181Z,4.30
2019-02-22T20:33:32.671Z,4.67
2019-02-22T20:36:02.674Z,3.47
2019-02-22T20:38:31.708Z,4.60
2019-02-22T20:41:00.396Z,4.80
2019-02-22T20:43:29.236Z,4.40
2019-02-22T20:45:57.995Z,4.55
2019-02-22T20:48:27.004Z,3.85
2019-02-22T20:50:55.630Z,4.70
2019-02-22T20:53:24.324Z,3.45
2019-02-22T20:55:52.995Z,4.15
2019-02-22T20:58:21.475Z,3.60
2019-02-22T21:00:53.745Z,4.28
2019-02-22T21:03:22.225Z,3.35
2019-02-22T21:05:50.764Z,3.12
2019-02-22T21:08:19.245Z,4.12
2019-02-22T21:10:49.014Z,3.58
2019-02-22T21:13:17.489Z,3.83
2019-02-22T21:15:46.114Z,3.35
2019-02-22T21:18:17.323Z,3.70
2019-02-22T21:20:45.800Z,3.12
2019-02-22T21:23:14.309Z,2.98
2019-02-22T21:25:42.873Z,3.45
2019-02-22T21:28:11.355Z,3.40
2019-02-22T21:30:39.832Z,3.20
2019-02-22T21:33:08.304Z,3.37
2019-02-22T21:35:36.931Z,3.62
2019-02-22T21:38:07.451Z,3.30
2019-02-22T21:40:35.750Z,3.00
2019-02-22T21:43:05.769Z,3.80
2019-02-22T21:45:42.599Z,3.37
2019-02-22T21:48:11.125Z,3.37
2019-02-22T21:50:39.614Z,3.40
2019-02-22T21:53:08.096Z,3.12
2019-02-22T21:55:36.584Z,3.80
2019-02-22T21:58:07.674Z,4.40
2019-02-22T22:00:36.237Z,3.27
2019-02-22T22:03:04.780Z,3.60
2019-02-22T22:05:37.487Z,3.55
2019-02-22T22:08:07.857Z,3.30
2019-02-22T22:10:36.377Z,3.30
2019-02-22T22:13:04.876Z,3.60
2019-02-22T22:15:36.540Z,3.77
2019-02-22T22:18:06.146Z,3.40
2019-02-22T22:20:34.610Z,3.75
2019-02-22T22:23:03.139Z,3.40
2019-02-22T22:25:31.613Z,3.22
2019-02-22T22:28:00.199Z,3.75
2019-02-22T22:30:28.660Z,3.45
2019-02-22T22:32:58.148Z,4.00
2019-02-22T22:35:26.614Z,3.22
2019-02-22T22:37:55.120Z,3.47
2019-02-22T22:40:23.863Z,3.58
2019-02-22T22:42:52.327Z,3.20
2019-02-22T22:45:20.894Z,4.08
2019-02-22T22:47:49.371Z,3.70
2019-02-22T22:50:18.340Z,3.90
2019-02-22T22:52:46.816Z,3.52
2019-02-22T22:55:18.729Z,3.30
2019-02-22T22:57:47.483Z,3.60
2019-02-22T23:03:21.696Z,4.08
2019-02-22T23:05:50.226Z,3.62
2019-02-22T23:08:18.719Z,3.45
2019-02-22T23:10:47.307Z,3.47
2019-02-22T23:13:15.768Z,4.17
2019-02-22T23:15:44.245Z,3.80
2019-02-22T23:18:12.784Z,4.17
2019-02-22T23:20:41.401Z,4.20
2019-02-22T23:23:10.032Z,3.65
2019-02-22T23:25:38.584Z,4.30
2019-02-22T23:28:11.584Z,4.58
2019-02-22T23:30:40.073Z,4.25
2019-02-22T23:33:08.626Z,4.12
2019-02-22T23:35:37.188Z,4.42
2019-02-22T23:38:05.658Z,3.75
2019-02-22T23:40:34.144Z,4.22
2019-02-22T23:43:02.626Z,5.05
2019-02-22T23:45:31.188Z,4.53
2019-02-22T23:47:59.649Z,4.42
2019-02-22T23:50:28.175Z,4.62
2019-02-22T23:52:56.645Z,4.65
2019-02-22T23:55:25.124Z,4.78
2019-02-22T23:57:53.619Z,4.75
